Time;durP1;ratioP1;P1;durP2;ratioP2;P2;SDS_P1;SDS_P2;PMS_P1;PMS_P2;Temp;Humidity;BMP_temperature;BMP_pressure;BME280_temperature;BME280_humidity;BME280_pressure;Samples;Min_cycle;Max_cycle;Signal;HPM_P1;HPM_P2
2024/03/28 00:02:16;;;;;;;33.60;22.08;;;9.90;99.90;;;;;;4981551;28;20022;-79
2024/03/28 00:04:42;;;;;;;30.15;20.95;;;9.90;99.90;;;;;;4968635;28;20350;-78
2024/03/28 00:07:11;;;;;;;34.97;22.45;;;9.80;99.90;;;;;;4962988;28;20027;-79
2024/03/28 00:09:41;;;;;;;32.53;21.23;;;9.80;99.90;;;;;;4983502;28;20504;-79
2024/03/28 00:12:09;;;;;;;41.00;23.70;;;9.70;99.90;;;;;;4965876;28;20549;-79
2024/03/28 00:14:35;;;;;;;34.55;21.92;;;9.70;99.90;;;;;;4971482;28;20035;-79
2024/03/28 00:17:04;;;;;;;34.83;23.40;;;9.70;99.90;;;;;;4966614;28;20034;-78
2024/03/28 00:19:30;;;;;;;34.45;23.25;;;9.60;99.90;;;;;;4973744;28;20493;-78
2024/03/28 00:21:56;;;;;;;31.75;21.50;;;9.60;99.90;;;;;;4973129;28;20542;-78
2024/03/28 00:24:22;;;;;;;41.38;25.27;;;9.60;99.90;;;;;;4973884;28;20031;-78
2024/03/28 00:26:52;;;;;;;35.58;23.33;;;9.50;99.90;;;;;;4986599;28;20077;-79
2024/03/28 00:29:18;;;;;;;37.83;23.67;;;9.50;99.90;;;;;;4967484;28;20027;-79
2024/03/28 00:31:44;;;;;;;38.58;24.05;;;9.50;99.90;;;;;;4985209;28;20474;-79
2024/03/28 00:34:12;;;;;;;39.08;24.08;;;9.50;99.90;;;;;;4961996;28;20047;-78
2024/03/28 00:36:46;;;;;;;40.17;24.20;;;9.50;99.90;;;;;;4961944;28;20027;-78
2024/03/28 00:39:12;;;;;;;38.75;25.05;;;9.50;99.90;;;;;;4964013;28;20089;-78
2024/03/28 00:41:38;;;;;;;45.08;26.20;;;9.40;99.90;;;;;;4984313;28;20026;-79
2024/03/28 00:44:06;;;;;;;41.40;25.50;;;9.40;99.90;;;;;;4988373;28;20058;-78
2024/03/28 00:46:32;;;;;;;36.95;24.73;;;9.40;99.90;;;;;;4975876;28;20058;-79
2024/03/28 00:49:00;;;;;;;35.95;23.90;;;9.40;99.90;;;;;;4970678;28;20034;-78
2024/03/28 00:51:26;;;;;;;39.75;24.75;;;9.30;99.90;;;;;;4970052;28;20023;-79
2024/03/28 00:53:52;;;;;;;40.80;25.50;;;9.30;99.90;;;;;;4954090;28;20394;-79
2024/03/28 00:56:18;;;;;;;39.65;24.85;;;9.30;99.90;;;;;;4967567;28;20014;-79
2024/03/28 00:58:44;;;;;;;36.30;25.05;;;9.20;99.90;;;;;;4968634;28;20532;-79
2024/03/28 01:01:09;;;;;;;41.20;25.60;;;9.20;99.90;;;;;;4972018;28;20022;-79
2024/03/28 01:03:35;;;;;;;37.78;25.48;;;9.20;99.90;;;;;;4962137;28;20085;-78
2024/03/28 01:06:01;;;;;;;39.50;25.42;;;9.20;99.90;;;;;;4964071;28;20456;-79
2024/03/28 01:08:27;;;;;;;46.80;26.60;;;9.20;99.90;;;;;;4974316;28;20515;-79
2024/03/28 01:10:53;;;;;;;38.88;27.05;;;9.10;99.90;;;;;;4962996;28;20066;-79
2024/03/28 01:13:19;;;;;;;45.60;26.40;;;9.10;99.90;;;;;;4974590;28;20023;-79
2024/03/28 01:15:45;;;;;;;46.78;27.52;;;9.10;99.90;;;;;;4964835;28;20111;-78
2024/03/28 01:18:11;;;;;;;38.80;25.70;;;9.00;99.90;;;;;;4978280;28;20035;-79
2024/03/28 01:20:37;;;;;;;41.80;27.10;;;9.00;99.90;;;;;;4962842;28;20033;-79
2024/03/28 01:23:03;;;;;;;42.33;27.02;;;9.00;99.90;;;;;;4969517;28;20022;-79
2024/03/28 01:25:31;;;;;;;48.42;29.48;;;9.00;99.90;;;;;;4975417;28;20117;-79
2024/03/28 01:27:57;;;;;;;41.35;26.98;;;9.10;99.90;;;;;;4966797;28;20470;-78
2024/03/28 01:30:23;;;;;;;41.70;27.25;;;9.00;99.90;;;;;;4972058;28;20109;-78
2024/03/28 01:32:49;;;;;;;44.03;27.88;;;9.10;99.90;;;;;;4960476;28;20071;-78
2024/03/28 01:35:14;;;;;;;44.58;28.52;;;9.10;99.90;;;;;;4988249;28;20042;-79
2024/03/28 01:37:43;;;;;;;40.95;25.98;;;9.10;99.90;;;;;;4989006;28;20541;-78
2024/03/28 01:40:11;;;;;;;42.30;26.80;;;9.10;99.90;;;;;;4963692;28;20035;-79
2024/03/28 01:42:38;;;;;;;39.40;27.00;;;9.10;99.90;;;;;;4961635;28;20072;-79
2024/03/28 01:45:07;;;;;;;45.42;29.92;;;9.10;99.90;;;;;;4981104;28;20034;-79
2024/03/28 01:47:33;;;;;;;41.55;28.05;;;9.10;99.90;;;;;;4981353;28;20548;-79
2024/03/28 01:50:03;;;;;;;47.65;29.95;;;9.10;99.90;;;;;;4965113;28;20098;-79
2024/03/28 01:52:29;;;;;;;44.60;26.77;;;9.00;99.90;;;;;;4969410;28;20049;-79
2024/03/28 01:54:57;;;;;;;39.95;25.92;;;9.00;99.90;;;;;;4964632;28;20503;-78
2024/03/28 01:57:26;;;;;;;46.72;29.05;;;9.10;99.90;;;;;;4979017;28;20047;-77
2024/03/28 01:59:53;;;;;;;50.75;29.08;;;9.10;99.90;;;;;;4973785;28;20090;-79
2024/03/28 02:02:22;;;;;;;45.88;28.92;;;9.10;99.90;;;;;;4967444;28;20532;-79
2024/03/28 02:04:51;;;;;;;41.53;27.88;;;9.10;99.90;;;;;;4960657;28;20038;-78
2024/03/28 02:07:34;;;;;;;45.95;27.90;;;9.10;99.90;;;;;;4963990;28;20031;-79
2024/03/28 02:09:59;;;;;;;52.10;30.35;;;9.10;99.90;;;;;;4966516;28;20078;-79
2024/03/28 02:12:25;;;;;;;52.35;30.55;;;9.10;99.90;;;;;;4972635;28;20393;-80
2024/03/28 02:14:51;;;;;;;47.60;30.20;;;9.10;99.90;;;;;;4965519;28;20482;-79
2024/03/28 02:17:31;;;;;;;49.30;30.20;;;9.10;99.90;;;;;;4967264;28;20113;-79
2024/03/28 02:20:00;;;;;;;46.28;29.17;;;9.00;99.90;;;;;;4974009;28;20085;-79
2024/03/28 02:22:26;;;;;;;50.30;30.77;;;9.00;99.90;;;;;;4977660;28;20027;-79
2024/03/28 02:24:56;;;;;;;50.60;30.38;;;9.10;99.90;;;;;;4966647;28;20041;-79
2024/03/28 02:27:24;;;;;;;43.28;27.60;;;9.00;99.90;;;;;;4970836;28;20113;-79
2024/03/28 02:29:49;;;;;;;53.83;31.65;;;9.00;99.90;;;;;;4970615;28;20023;-79
2024/03/28 02:32:18;;;;;;;55.38;31.15;;;9.00;99.90;;;;;;4971222;28;20101;-80
2024/03/28 02:34:46;;;;;;;54.83;30.83;;;9.00;99.90;;;;;;4971224;28;20034;-79
2024/03/28 02:37:12;;;;;;;49.35;31.88;;;8.90;99.90;;;;;;4987105;28;20059;-79
2024/03/28 02:39:40;;;;;;;54.00;31.73;;;9.00;99.90;;;;;;4963848;28;20063;-80
2024/03/28 02:42:06;;;;;;;50.65;30.63;;;8.90;99.90;;;;;;4963309;28;20049;-80
2024/03/28 02:44:33;;;;;;;60.38;33.53;;;8.90;99.90;;;;;;4973925;28;20486;-79
2024/03/28 02:47:04;;;;;;;56.25;32.80;;;8.90;99.90;;;;;;4970036;28;20026;-79
2024/03/28 02:49:29;;;;;;;53.40;34.38;;;8.90;99.90;;;;;;4968400;28;20027;-79
2024/03/28 02:51:58;;;;;;;59.60;33.63;;;8.90;99.90;;;;;;4964977;28;20038;-80
2024/03/28 02:54:24;;;;;;;59.80;34.10;;;8.90;99.90;;;;;;4977558;28;20513;-79
2024/03/28 02:56:53;;;;;;;60.47;33.88;;;8.90;99.90;;;;;;4975148;28;20026;-79
2024/03/28 02:59:21;;;;;;;62.13;33.72;;;8.90;99.90;;;;;;4976813;28;20564;-80
2024/03/28 03:01:47;;;;;;;58.00;29.30;;;8.90;99.90;;;;;;4968517;28;20058;-79
2024/03/28 03:04:15;;;;;;;53.38;26.13;;;8.90;99.90;;;;;;4968097;28;20111;-80
2024/03/28 03:06:42;;;;;;;44.38;22.80;;;8.80;99.90;;;;;;4958589;28;20046;-79
2024/03/28 03:09:11;;;;;;;35.80;17.42;;;8.70;99.90;;;;;;4980482;28;20063;-80
2024/03/28 03:11:39;;;;;;;26.83;13.90;;;8.60;99.90;;;;;;4956669;29;20300;-79
2024/03/28 03:14:05;;;;;;;28.00;14.05;;;8.50;99.90;;;;;;4977669;28;20027;-81
2024/03/28 03:16:30;;;;;;;24.55;12.20;;;8.40;99.90;;;;;;4967560;28;20117;-80
2024/03/28 03:18:59;;;;;;;20.45;10.00;;;8.30;99.90;;;;;;4958817;28;20035;-80
2024/03/28 03:21:25;;;;;;;17.95;8.98;;;8.20;99.90;;;;;;4957679;29;20031;-80
2024/03/28 03:24:00;;;;;;;16.65;8.20;;;8.10;99.90;;;;;;4957879;28;20093;-79
2024/03/28 03:26:32;;;;;;;12.90;7.03;;;8.00;99.90;;;;;;4972734;28;20546;-81
2024/03/28 03:34:36;;;;;;;13.10;6.07;;;7.70;99.90;;;;;;4973634;28;20066;-81
2024/03/28 03:37:12;;;;;;;12.20;5.93;;;7.60;99.90;;;;;;4977377;28;20050;-81
2024/03/28 03:39:40;;;;;;;11.70;6.07;;;7.50;99.90;;;;;;4980550;28;20436;-80
2024/03/28 03:42:08;;;;;;;12.77;5.97;;;7.40;99.90;;;;;;4967970;28;20382;-80
2024/03/28 03:44:34;;;;;;;10.88;5.88;;;7.40;99.90;;;;;;4965570;28;20030;-80
2024/03/28 03:47:00;;;;;;;13.70;6.25;;;7.30;99.90;;;;;;4965938;28;20109;-80
2024/03/28 03:49:29;;;;;;;13.25;6.35;;;7.30;99.90;;;;;;4964598;28;20553;-79
2024/03/28 03:51:57;;;;;;;12.35;6.68;;;7.30;99.90;;;;;;4981295;28;20474;-79
2024/03/28 03:54:22;;;;;;;15.15;7.13;;;7.30;99.90;;;;;;4969800;28;20019;-80
2024/03/28 03:56:51;;;;;;;13.73;7.55;;;7.20;99.90;;;;;;4963544;28;20034;-79
2024/03/28 03:59:17;;;;;;;11.70;7.30;;;7.20;99.90;;;;;;4962093;28;20019;-80
2024/03/28 04:01:46;;;;;;;13.30;7.80;;;7.10;99.90;;;;;;4971170;28;20101;-78
2024/03/28 04:04:14;;;;;;;14.52;8.73;;;7.10;99.90;;;;;;4959313;28;20027;-79
2024/03/28 04:06:40;;;;;;;11.60;7.93;;;7.10;99.90;;;;;;4974541;28;20058;-80
2024/03/28 04:09:08;;;;;;;11.02;8.05;;;7.10;99.90;;;;;;4966258;28;20508;-79
2024/03/28 04:11:34;;;;;;;15.77;9.73;;;7.00;99.90;;;;;;4975457;28;20026;-80
2024/03/28 04:14:00;;;;;;;18.55;10.27;;;7.00;99.90;;;;;;4968241;28;20116;-79
2024/03/28 04:16:26;;;;;;;13.18;9.40;;;6.90;99.90;;;;;;4972071;28;20346;-80
2024/03/28 04:18:52;;;;;;;12.98;9.18;;;6.90;99.90;;;;;;4978317;28;20027;-80
2024/03/28 04:21:18;;;;;;;14.93;8.98;;;6.80;99.90;;;;;;4975562;28;20023;-79
2024/03/28 04:23:44;;;;;;;11.13;7.72;;;6.80;99.90;;;;;;4968205;28;20053;-80
2024/03/28 04:26:10;;;;;;;11.13;7.47;;;6.70;99.90;;;;;;4983718;28;20478;-80
2024/03/28 04:28:36;;;;;;;12.20;7.60;;;6.70;99.90;;;;;;4978372;28;20033;-79
2024/03/28 04:31:01;;;;;;;13.80;8.60;;;6.60;99.90;;;;;;4959943;28;20054;-80
2024/03/28 04:33:27;;;;;;;12.55;7.82;;;6.60;99.90;;;;;;4993015;28;20505;-79
2024/03/28 04:35:53;;;;;;;11.52;7.32;;;6.60;99.90;;;;;;4980114;28;20066;-80
2024/03/28 04:38:19;;;;;;;14.70;7.97;;;6.50;99.90;;;;;;4980296;28;20019;-80
2024/03/28 04:40:45;;;;;;;13.73;7.35;;;6.50;99.90;;;;;;4978523;28;20030;-80
2024/03/28 04:43:12;;;;;;;14.00;8.00;;;6.40;99.90;;;;;;4981470;28;20023;-80
2024/03/28 04:45:38;;;;;;;12.23;7.57;;;6.40;99.90;;;;;;4967312;28;20031;-80
2024/03/28 04:48:04;;;;;;;17.83;8.52;;;6.30;99.90;;;;;;4974428;28;20027;-81
2024/03/28 04:50:29;;;;;;;13.68;6.95;;;6.40;99.90;;;;;;4979345;28;20034;-79
2024/03/28 04:52:55;;;;;;;12.88;7.07;;;6.30;99.90;;;;;;4974898;28;20033;-79
2024/03/28 04:55:21;;;;;;;12.23;7.00;;;6.30;99.90;;;;;;4963968;28;20633;-80
2024/03/28 04:57:47;;;;;;;13.25;6.15;;;6.20;99.90;;;;;;4986927;28;20065;-80
2024/03/28 05:00:13;;;;;;;19.38;8.02;;;6.10;99.90;;;;;;4976774;28;20027;-79
2024/03/28 05:02:40;;;;;;;13.02;7.10;;;6.10;99.90;;;;;;4979356;28;20065;-79
2024/03/28 05:05:08;;;;;;;11.82;6.55;;;6.00;99.90;;;;;;4974985;28;20034;-80
2024/03/28 05:07:35;;;;;;;14.35;7.55;;;6.00;99.90;;;;;;4959899;28;20050;-79
2024/03/28 05:10:01;;;;;;;12.80;7.80;;;5.90;99.90;;;;;;4963486;28;20023;-80
2024/03/28 05:12:26;;;;;;;17.02;8.80;;;5.90;99.90;;;;;;4974569;28;20029;-80
2024/03/28 05:14:54;;;;;;;21.55;9.48;;;5.90;99.90;;;;;;4964041;28;20027;-80
2024/03/28 05:17:19;;;;;;;17.17;8.02;;;5.90;99.90;;;;;;4965103;28;20030;-80
2024/03/28 05:19:45;;;;;;;19.35;9.57;;;5.90;99.90;;;;;;4959571;28;20110;-80
2024/03/28 05:22:11;;;;;;;17.73;9.25;;;5.90;99.90;;;;;;4985156;28;20031;-80
2024/03/28 05:24:36;;;;;;;19.00;9.88;;;5.90;99.90;;;;;;4965635;28;20069;-81
2024/03/28 05:27:02;;;;;;;22.25;10.30;;;6.00;99.90;;;;;;4961782;28;20035;-81
2024/03/28 05:29:28;;;;;;;23.23;10.30;;;5.90;99.90;;;;;;4972185;28;20023;-80
2024/03/28 05:31:54;;;;;;;19.95;10.55;;;5.80;99.90;;;;;;4965031;28;20483;-81
2024/03/28 05:34:20;;;;;;;27.08;11.40;;;5.80;99.90;;;;;;4963560;28;20058;-80
2024/03/28 05:36:46;;;;;;;21.60;11.65;;;5.80;99.90;;;;;;4965767;28;20483;-80
2024/03/28 05:39:11;;;;;;;28.67;10.52;;;5.80;99.90;;;;;;4973194;28;20022;-80
2024/03/28 05:41:37;;;;;;;20.42;9.07;;;5.80;99.90;;;;;;4977612;28;20058;-80
2024/03/28 05:44:03;;;;;;;26.65;10.07;;;5.80;99.90;;;;;;4976361;28;20354;-80
2024/03/28 05:46:29;;;;;;;21.30;8.90;;;5.80;99.90;;;;;;4962370;28;20170;-82
2024/03/28 05:48:55;;;;;;;26.92;11.15;;;5.70;99.90;;;;;;4979168;28;20031;-82
2024/03/28 05:51:21;;;;;;;21.10;9.75;;;5.70;99.90;;;;;;4980720;28;20026;-81
2024/03/28 05:53:48;;;;;;;24.40;10.10;;;5.70;99.90;;;;;;4970576;28;20018;-81
2024/03/28 05:56:18;;;;;;;21.08;9.88;;;5.70;99.90;;;;;;4965808;28;20074;-80
2024/03/28 05:58:47;;;;;;;19.02;9.77;;;5.70;99.90;;;;;;4966375;28;20038;-81
2024/03/28 06:01:13;;;;;;;20.58;11.00;;;5.70;99.90;;;;;;4968489;28;20023;-81
2024/03/28 06:03:39;;;;;;;19.13;11.00;;;5.70;99.90;;;;;;4977651;28;20058;-81
2024/03/28 06:06:05;;;;;;;21.52;10.52;;;5.70;99.90;;;;;;4964319;28;20021;-81
2024/03/28 06:08:31;;;;;;;20.75;10.68;;;5.70;99.90;;;;;;4969229;28;20098;-80
2024/03/28 06:10:56;;;;;;;19.52;11.10;;;5.70;99.90;;;;;;4959278;28;20117;-81
2024/03/28 06:13:22;;;;;;;20.45;11.00;;;5.80;99.90;;;;;;4954538;28;20032;-81
2024/03/28 06:15:49;;;;;;;21.50;10.52;;;5.80;99.90;;;;;;4987388;28;20034;-81
2024/03/28 06:18:15;;;;;;;19.65;9.90;;;5.90;99.90;;;;;;4975232;28;20070;-80
2024/03/28 06:20:41;;;;;;;17.05;10.52;;;5.90;99.90;;;;;;4971840;28;20057;-81
2024/03/28 06:23:08;;;;;;;19.95;11.52;;;5.90;99.90;;;;;;4966909;28;20075;-79
2024/03/28 06:25:38;;;;;;;20.20;11.95;;;5.90;99.90;;;;;;4978642;28;20026;-80
2024/03/28 06:28:35;;;;;;;22.73;11.50;;;6.00;99.90;;;;;;4959767;28;20030;-81
2024/03/28 06:31:04;;;;;;;20.45;12.00;;;6.00;99.90;;;;;;4961741;28;20492;-79
2024/03/28 06:33:29;;;;;;;19.88;11.57;;;6.00;99.90;;;;;;4986614;28;20031;-79
2024/03/28 06:35:55;;;;;;;24.65;13.50;;;6.00;99.90;;;;;;4975798;28;20090;-80
2024/03/28 06:38:22;;;;;;;22.15;12.52;;;6.00;99.90;;;;;;4962330;28;20023;-79
2024/03/28 06:40:47;;;;;;;17.92;10.88;;;6.00;99.90;;;;;;4958690;28;20035;-79
2024/03/28 06:43:14;;;;;;;24.27;13.02;;;6.00;99.90;;;;;;4970997;28;20413;-78
2024/03/28 06:45:40;;;;;;;25.88;12.50;;;6.10;99.90;;;;;;4969055;28;20150;-79
2024/03/28 06:48:06;;;;;;;21.30;12.00;;;6.10;99.90;;;;;;4964102;28;20498;-79
2024/03/28 06:50:31;;;;;;;23.38;13.32;;;6.10;99.90;;;;;;4966590;28;20026;-79
2024/03/28 06:52:59;;;;;;;28.15;13.65;;;6.20;99.90;;;;;;4966395;28;20093;-79
2024/03/28 06:55:26;;;;;;;26.38;13.38;;;6.30;99.90;;;;;;4968629;28;20113;-80
2024/03/28 06:57:53;;;;;;;28.85;12.57;;;6.30;99.90;;;;;;4990537;28;20110;-79
2024/03/28 07:00:19;;;;;;;23.45;12.32;;;6.40;99.90;;;;;;4957981;28;20031;-79
2024/03/28 07:02:48;;;;;;;20.58;11.75;;;6.40;99.90;;;;;;4956751;28;20031;-79
2024/03/28 07:05:14;;;;;;;20.83;11.65;;;6.40;99.90;;;;;;4958821;28;20034;-79
2024/03/28 07:07:40;;;;;;;21.80;12.27;;;6.50;99.90;;;;;;4965999;28;20382;-79
2024/03/28 07:10:11;;;;;;;18.65;10.63;;;6.60;99.90;;;;;;4961102;28;20063;-79
2024/03/28 07:12:37;;;;;;;22.73;11.45;;;6.50;99.90;;;;;;4975440;28;20038;-79
2024/03/28 07:15:09;;;;;;;17.63;10.52;;;6.50;99.90;;;;;;4987253;28;20033;-79
2024/03/28 07:17:36;;;;;;;14.88;9.85;;;6.70;99.90;;;;;;4979510;28;20074;-79
2024/03/28 07:20:03;;;;;;;17.73;10.65;;;6.80;99.90;;;;;;4959829;28;20039;-79
2024/03/28 07:22:29;;;;;;;15.88;10.57;;;6.90;99.90;;;;;;4960605;28;20039;-79
2024/03/28 07:24:55;;;;;;;18.88;11.02;;;6.90;99.90;;;;;;4970122;28;20038;-79
2024/03/28 07:27:22;;;;;;;13.35;9.00;;;7.00;99.90;;;;;;4989839;28;20030;-79
2024/03/28 07:29:48;;;;;;;16.10;9.57;;;7.00;99.90;;;;;;4979311;28;20027;-79
2024/03/28 07:32:13;;;;;;;17.15;10.15;;;7.10;99.90;;;;;;4970579;28;20045;-80
2024/03/28 07:34:39;;;;;;;15.00;9.23;;;7.00;99.90;;;;;;4969347;28;20063;-80
2024/03/28 07:37:08;;;;;;;16.92;10.30;;;7.10;99.90;;;;;;4977093;28;20014;-80
2024/03/28 07:39:36;;;;;;;16.67;9.70;;;7.10;99.90;;;;;;4961887;28;20116;-79
2024/03/28 07:42:02;;;;;;;16.85;10.13;;;7.10;99.90;;;;;;4972316;28;20084;-80
2024/03/28 07:44:28;;;;;;;14.32;9.45;;;7.20;99.90;;;;;;4967166;28;20473;-79
2024/03/28 07:46:56;;;;;;;14.25;8.55;;;7.30;99.90;;;;;;4969579;28;20031;-79
2024/03/28 07:49:24;;;;;;;14.10;9.07;;;7.40;99.90;;;;;;4985764;28;20485;-79
2024/03/28 07:51:49;;;;;;;12.93;8.80;;;7.60;99.90;;;;;;4964978;28;20030;-79
2024/03/28 07:54:15;;;;;;;10.52;7.57;;;7.60;99.90;;;;;;4963006;28;20236;-79
2024/03/28 07:56:41;;;;;;;11.45;7.65;;;7.70;99.90;;;;;;4979826;28;20367;-79
2024/03/28 07:59:07;;;;;;;13.18;8.25;;;7.60;99.90;;;;;;4970732;28;20124;-80
2024/03/28 08:01:33;;;;;;;9.45;6.30;;;7.70;99.90;;;;;;4968361;28;20027;-80
2024/03/28 08:03:58;;;;;;;10.30;6.85;;;7.70;99.90;;;;;;4986640;28;20031;-79
2024/03/28 08:06:25;;;;;;;8.45;6.25;;;7.70;99.90;;;;;;4955566;28;20019;-79
2024/03/28 08:08:51;;;;;;;8.20;5.47;;;7.60;99.90;;;;;;4973091;28;20045;-79
2024/03/28 08:11:17;;;;;;;6.70;5.57;;;7.70;99.90;;;;;;4961339;28;20018;-78
2024/03/28 08:13:43;;;;;;;5.40;4.68;;;7.80;99.90;;;;;;4962625;28;20031;-79
2024/03/28 08:16:16;;;;;;;7.22;4.43;;;7.90;99.90;;;;;;4963863;28;20482;-79
2024/03/28 08:18:41;;;;;;;6.38;4.82;;;8.20;99.90;;;;;;4960862;28;20031;-79
2024/03/28 08:21:10;;;;;;;4.60;3.90;;;8.40;99.90;;;;;;4972119;28;20051;-79
2024/03/28 08:23:36;;;;;;;4.35;3.33;;;8.80;99.90;;;;;;4963350;28;20069;-79
2024/03/28 08:26:03;;;;;;;3.33;2.97;;;9.10;99.90;;;;;;4969677;28;20058;-79
2024/03/28 08:28:34;;;;;;;2.67;2.42;;;9.30;99.90;;;;;;4986030;28;20022;-79
2024/03/28 08:31:00;;;;;;;2.92;2.63;;;9.30;99.90;;;;;;4973556;28;20024;-79
2024/03/28 08:33:29;;;;;;;3.35;3.03;;;9.20;99.90;;;;;;4970335;28;20070;-79
2024/03/28 08:35:54;;;;;;;4.07;2.75;;;9.00;99.90;;;;;;4965364;28;20391;-79
2024/03/28 08:38:20;;;;;;;3.35;3.05;;;8.90;99.90;;;;;;4954113;28;20034;-79
2024/03/28 08:40:46;;;;;;;3.33;3.03;;;9.00;99.90;;;;;;4964827;28;20027;-79
2024/03/28 08:43:12;;;;;;;5.00;3.17;;;8.80;99.90;;;;;;4969677;28;20081;-79
2024/03/28 08:45:38;;;;;;;3.63;3.17;;;9.20;99.90;;;;;;4970252;28;20466;-83
2024/03/28 08:48:05;;;;;;;4.75;3.35;;;9.60;99.90;;;;;;4962896;28;20019;-79
2024/03/28 08:50:31;;;;;;;4.88;3.35;;;9.80;99.90;;;;;;4966882;28;20038;-77
2024/03/28 08:52:57;;;;;;;5.18;3.78;;;10.20;99.90;;;;;;4966495;28;20338;-77
2024/03/28 08:55:24;;;;;;;3.83;3.28;;;10.20;99.90;;;;;;4967569;28;20038;-77
2024/03/28 08:57:51;;;;;;;3.75;3.45;;;11.10;99.90;;;;;;4965317;28;20030;-77
2024/03/28 09:00:25;;;;;;;7.20;3.10;;;11.60;99.90;;;;;;4967679;28;20030;-79
2024/03/28 09:02:51;;;;;;;3.10;2.80;;;12.60;99.90;;;;;;4956908;28;20023;-79
2024/03/28 09:05:17;;;;;;;3.42;2.80;;;12.90;99.90;;;;;;4968819;28;20022;-79
2024/03/28 09:07:49;;;;;;;4.75;3.97;;;13.30;99.90;;;;;;4981220;28;20035;-79
2024/03/28 09:10:14;;;;;;;5.20;4.70;;;13.60;99.90;;;;;;4967297;28;20405;-79
2024/03/28 09:12:47;;;;;;;5.28;4.18;;;14.30;99.90;;;;;;4958274;28;20043;-81
2024/03/28 09:15:17;;;;;;;5.50;4.30;;;15.60;99.90;;;;;;4968267;28;20077;-79
2024/03/28 09:17:42;;;;;;;4.85;4.03;;;17.00;99.90;;;;;;4976452;28;20082;-78
2024/03/28 09:20:13;;;;;;;5.38;4.07;;;17.30;96.20;;;;;;4971645;28;20073;-79
2024/03/28 09:22:39;;;;;;;4.25;3.42;;;18.30;99.20;;;;;;4957835;28;20035;-79
2024/03/28 09:25:05;;;;;;;4.88;3.35;;;19.50;91.50;;;;;;4967676;28;20023;-79
2024/03/28 09:27:30;;;;;;;3.25;3.03;;;20.00;92.30;;;;;;4966674;28;20348;-79
2024/03/28 09:29:56;;;;;;;5.18;3.35;;;19.60;87.90;;;;;;4963003;28;20490;-79
2024/03/28 09:32:22;;;;;;;4.43;2.72;;;19.20;88.30;;;;;;4959085;28;20028;-79
2024/03/28 09:34:51;;;;;;;4.43;2.97;;;19.10;87.60;;;;;;4971066;28;20390;-79
2024/03/28 09:37:18;;;;;;;3.58;2.95;;;19.60;85.40;;;;;;4969273;28;20030;-79
2024/03/28 09:39:48;;;;;;;3.85;3.53;;;20.00;86.80;;;;;;4958933;28;20598;-79
2024/03/28 09:42:19;;;;;;;4.45;3.53;;;19.60;82.10;;;;;;4964165;28;20038;-79
2024/03/28 09:44:47;;;;;;;3.90;3.50;;;19.90;81.60;;;;;;4962291;28;20031;-79
2024/03/28 09:47:19;;;;;;;3.47;3.17;;;18.70;83.60;;;;;;4975577;28;20127;-79
2024/03/28 09:49:45;;;;;;;4.10;3.60;;;18.80;87.40;;;;;;4955921;28;20034;-79
2024/03/28 09:52:13;;;;;;;6.32;3.40;;;18.90;83.60;;;;;;4969093;28;20023;-80
2024/03/28 09:54:42;;;;;;;5.80;2.92;;;19.40;85.70;;;;;;4973637;28;20441;-79
2024/03/28 09:57:08;;;;;;;4.45;3.10;;;19.70;83.30;;;;;;4969875;28;20171;-79
2024/03/28 09:59:33;;;;;;;3.88;3.10;;;19.40;83.50;;;;;;4957840;28;20114;-79
2024/03/28 10:02:12;;;;;;;4.20;2.63;;;20.30;82.50;;;;;;4960469;28;20027;-79
2024/03/28 10:04:40;;;;;;;3.60;2.90;;;20.70;78.20;;;;;;4961628;28;20493;-79
2024/03/28 10:07:10;;;;;;;3.30;3.00;;;20.70;79.40;;;;;;4965787;28;20026;-78
2024/03/28 10:09:36;;;;;;;2.95;2.60;;;19.90;78.00;;;;;;4969601;28;20030;-78
2024/03/28 10:12:14;;;;;;;3.13;2.83;;;19.00;80.60;;;;;;4972263;28;20433;-79
2024/03/28 10:14:51;;;;;;;2.83;2.63;;;19.80;82.80;;;;;;4970013;28;20051;-79
2024/03/28 10:17:26;;;;;;;3.60;2.30;;;21.10;78.40;;;;;;4982729;28;20019;-79
2024/03/28 10:20:03;;;;;;;3.25;2.55;;;22.50;80.80;;;;;;4982658;28;20034;-79
2024/03/28 10:22:31;;;;;;;2.47;2.28;;;23.70;71.30;;;;;;4972564;28;20041;-79
2024/03/28 10:24:58;;;;;;;2.58;1.88;;;23.80;71.50;;;;;;4961302;28;20022;-79
2024/03/28 10:27:23;;;;;;;2.65;2.10;;;23.40;69.80;;;;;;4956755;28;20023;-79
2024/03/28 10:29:54;;;;;;;2.63;1.92;;;22.60;72.90;;;;;;4966094;28;20042;-79
2024/03/28 10:32:20;;;;;;;4.07;2.13;;;22.70;70.50;;;;;;4973505;28;20540;-80
2024/03/28 10:34:47;;;;;;;2.95;2.00;;;23.00;67.90;;;;;;4973641;28;20022;-79
2024/03/28 10:37:20;;;;;;;3.35;1.77;;;22.70;68.70;;;;;;4959633;28;20487;-80
2024/03/28 10:39:54;;;;;;;2.25;1.63;;;22.90;70.50;;;;;;4966940;28;20023;-78
2024/03/28 10:42:20;;;;;;;2.35;1.85;;;23.70;66.70;;;;;;4973734;28;20030;-78
2024/03/28 10:44:50;;;;;;;4.93;1.50;;;22.90;68.60;;;;;;4964924;28;20037;-78
2024/03/28 10:47:16;;;;;;;3.70;1.67;;;22.90;67.10;;;;;;4968368;28;20053;-78
2024/03/28 10:49:53;;;;;;;2.05;1.50;;;23.30;65.30;;;;;;4969630;28;20046;-78
2024/03/28 10:52:33;;;;;;;3.05;1.50;;;23.00;67.00;;;;;;4960561;28;20390;-78
2024/03/28 10:55:04;;;;;;;3.50;1.42;;;22.60;65.60;;;;;;4993979;28;20046;-78
2024/03/28 10:57:32;;;;;;;3.10;1.50;;;22.80;67.00;;;;;;4987431;28;20066;-78
2024/03/28 10:59:59;;;;;;;1.70;1.30;;;22.40;67.20;;;;;;4981711;28;20106;-78
2024/03/28 11:02:27;;;;;;;3.00;1.35;;;22.00;66.40;;;;;;4972582;28;20413;-78
2024/03/28 11:04:54;;;;;;;2.47;1.48;;;22.10;68.50;;;;;;4959615;28;20023;-78
2024/03/28 11:07:21;;;;;;;1.83;1.50;;;20.90;67.90;;;;;;4969784;28;20027;-78
2024/03/28 11:09:49;;;;;;;2.25;1.42;;;20.40;69.40;;;;;;4972652;28;20019;-78
2024/03/28 11:12:18;;;;;;;1.88;1.50;;;19.80;71.20;;;;;;4973087;28;20021;-79
2024/03/28 11:14:58;;;;;;;3.67;1.40;;;18.70;72.80;;;;;;4961429;28;20027;-79
2024/03/28 11:17:24;;;;;;;1.85;1.65;;;17.10;77.20;;;;;;4975304;28;20137;-79
2024/03/28 11:20:08;;;;;;;4.65;1.75;;;15.80;78.30;;;;;;4977142;28;20509;-77
2024/03/28 11:22:34;;;;;;;1.50;1.40;;;14.90;82.20;;;;;;4963905;28;20030;-78
2024/03/28 11:24:59;;;;;;;2.33;1.55;;;14.60;83.00;;;;;;4980079;28;20565;-78
2024/03/28 11:27:25;;;;;;;1.63;1.33;;;14.40;83.50;;;;;;4960289;28;20525;-79
2024/03/28 11:30:13;;;;;;;3.83;1.35;;;14.20;86.70;;;;;;4963661;28;20023;-78
2024/03/28 11:32:40;;;;;;;2.33;1.35;;;14.30;86.90;;;;;;4974670;28;20446;-78
2024/03/28 11:35:08;;;;;;;2.92;1.25;;;14.40;85.80;;;;;;4967206;28;20057;-79
2024/03/28 11:37:34;;;;;;;1.63;1.45;;;14.40;87.40;;;;;;4974178;28;20552;-78
2024/03/28 11:39:59;;;;;;;1.75;1.23;;;14.30;87.00;;;;;;4974999;28;20054;-78
2024/03/28 11:42:25;;;;;;;1.90;1.20;;;14.20;88.20;;;;;;4973850;28;20059;-78
2024/03/28 11:44:51;;;;;;;1.27;1.00;;;14.10;88.80;;;;;;4971202;28;20030;-78
2024/03/28 11:47:43;;;;;;;3.38;1.00;;;13.90;90.00;;;;;;4967484;28;20482;-78
2024/03/28 11:50:11;;;;;;;2.20;1.23;;;13.80;88.90;;;;;;4972830;28;20039;-78
2024/03/28 11:52:38;;;;;;;1.20;0.95;;;13.60;90.00;;;;;;4973673;28;20548;-78
2024/03/28 11:55:05;;;;;;;2.75;1.23;;;13.60;90.50;;;;;;4961411;28;20027;-78
2024/03/28 11:57:34;;;;;;;1.73;1.17;;;13.50;91.00;;;;;;4961898;28;20019;-78
2024/03/28 12:00:07;;;;;;;6.07;1.40;;;13.30;91.20;;;;;;4967653;28;20098;-78
2024/03/28 12:02:33;;;;;;;1.92;1.15;;;13.10;91.20;;;;;;4975861;28;20080;-78
2024/03/28 12:05:08;;;;;;;1.05;0.98;;;13.00;92.00;;;;;;4977828;28;20034;-78
2024/03/28 12:07:34;;;;;;;2.38;1.10;;;12.60;92.70;;;;;;4967674;28;20106;-77
2024/03/28 12:10:02;;;;;;;2.13;1.20;;;12.50;93.50;;;;;;4964165;28;20034;-77
2024/03/28 12:12:29;;;;;;;1.67;0.98;;;12.40;93.60;;;;;;4964786;28;20027;-78
2024/03/28 12:15:02;;;;;;;2.92;0.98;;;12.40;93.90;;;;;;4982658;28;20368;-78
2024/03/28 12:17:28;;;;;;;3.10;1.25;;;12.30;94.00;;;;;;4961961;28;20122;-77
2024/03/28 12:20:08;;;;;;;1.73;0.90;;;12.00;97.10;;;;;;4968498;28;20176;-78
2024/03/28 12:22:34;;;;;;;1.60;1.27;;;11.80;99.90;;;;;;4964650;28;20031;-78
2024/03/28 12:25:00;;;;;;;2.83;1.80;;;11.50;99.90;;;;;;4961205;28;20112;-78
2024/03/28 12:27:27;;;;;;;3.55;1.02;;;11.00;99.90;;;;;;4964308;28;20031;-78
2024/03/28 12:29:53;;;;;;;2.42;1.40;;;10.80;99.90;;;;;;4986701;28;20027;-79
2024/03/28 12:32:25;;;;;;;2.72;1.60;;;10.60;99.90;;;;;;4961718;28;20023;-79
2024/03/28 12:34:50;;;;;;;;;;;10.40;99.90;;;;;;4963246;28;20469;-79
2024/03/28 12:37:16;;;;;;;3.80;1.50;;;10.30;99.90;;;;;;4972015;28;19992;-79
2024/03/28 12:39:45;;;;;;;1.30;1.20;;;10.20;99.90;;;;;;4976736;28;20498;-79
2024/03/28 12:42:11;;;;;;;3.17;1.13;;;10.10;99.90;;;;;;4971056;28;20473;-79
2024/03/28 12:44:37;;;;;;;3.67;1.15;;;10.10;99.90;;;;;;4967285;28;20038;-79
2024/03/28 12:47:03;;;;;;;2.20;1.55;;;10.00;99.90;;;;;;4959505;28;20489;-79
2024/03/28 12:49:33;;;;;;;2.13;1.27;;;10.00;99.90;;;;;;4978649;28;20030;-79
2024/03/28 12:52:01;;;;;;;2.55;1.20;;;10.00;99.90;;;;;;4974434;28;20031;-79